Terminal Aerodrome Forecast
Issued by NWS

Home | Current Version | Previous Version | Text Only | Print | Product List | Glossary On
Versions: 1 2 3 4 5 6 7 8 9 10 11 12 13 14 15 16 17 18 19 20 21 22 23 24 25 26 27 28 29 30 31 32 33 34 35 36 37 38 39 40 41 42 43 44 45 46 47 48
692
FTUS46 KEKA 202007 AAA
TAFACV
TAF AMD
KACV 202007Z 2020/2118 15009KT 6SM -RA BR FEW007 SCT015 OVC020
      WS020/22035KT
      TEMPO 2022/2024 5SM -RA BR SCT007 OVC015
     FM210000 15008KT 2SM -RA BR SCT007 OVC025
     FM210600 14008KT 5SM -RA BR SCT020 BKN050
     FM211300 13010KT 3SM -RA BR SCT020 BKN050 WS020/20045KT=

USA.gov is the U.S. government's official web portal to all federal, state and local government web resources and services.